Airport View

Enter AWOS ICAO identifier for current METAR.

ex. KFNL

KTOR 290353Z AUTO 00000KT 10SM CLR 08/M04 A3025 RMK AO2 SLP234 T00831039

29 Sep 2020 04:34

Frequency: 118.375

Phone: 307-532-8958

Other Area AWOS: KBFF - KGUR - KEAN - KLSK

TAF KBFF 282320Z 2900/2924 32018G28KT P6SM FEW250 FM290100 VRB05KT P6SM SKC FM291700 32016G22KT P6SM SKC